sensor_id;sensor_type;location;lat;lon;timestamp;pressure;altitude;pressure_sealevel;temperature;humidity
57885;BME280;43703;51.060;-0.086;2022-12-07T00:01:06;100823.16;;;2.22;65.26
57885;BME280;43703;51.060;-0.086;2022-12-07T00:03:31;100819.72;;;2.28;65.16
57885;BME280;43703;51.060;-0.086;2022-12-07T00:05:57;100817.08;;;2.34;65.20
57885;BME280;43703;51.060;-0.086;2022-12-07T00:08:22;100815.43;;;2.08;65.59
57885;BME280;43703;51.060;-0.086;2022-12-07T00:10:47;100814.95;;;2.15;65.57
57885;BME280;43703;51.060;-0.086;2022-12-07T00:13:13;100818.68;;;2.17;65.90
57885;BME280;43703;51.060;-0.086;2022-12-07T00:15:38;100816.28;;;1.72;66.38
57885;BME280;43703;51.060;-0.086;2022-12-07T00:18:03;100812.33;;;2.16;65.19
57885;BME280;43703;51.060;-0.086;2022-12-07T00:20:28;100814.82;;;1.70;65.86
57885;BME280;43703;51.060;-0.086;2022-12-07T00:22:54;100820.15;;;2.33;65.50
57885;BME280;43703;51.060;-0.086;2022-12-07T00:25:19;100823.08;;;1.42;66.55
57885;BME280;43703;51.060;-0.086;2022-12-07T00:27:44;100824.68;;;2.33;65.62
57885;BME280;43703;51.060;-0.086;2022-12-07T00:30:09;100827.19;;;2.07;65.74
57885;BME280;43703;51.060;-0.086;2022-12-07T00:32:35;100821.61;;;2.00;66.62
57885;BME280;43703;51.060;-0.086;2022-12-07T00:35:00;100822.01;;;1.80;66.58
57885;BME280;43703;51.060;-0.086;2022-12-07T00:37:26;100817.27;;;1.76;66.62
57885;BME280;43703;51.060;-0.086;2022-12-07T00:39:51;100815.69;;;1.94;66.13
57885;BME280;43703;51.060;-0.086;2022-12-07T00:42:16;100813.33;;;2.08;66.07
57885;BME280;43703;51.060;-0.086;2022-12-07T00:44:42;100811.95;;;1.46;67.15
57885;BME280;43703;51.060;-0.086;2022-12-07T00:47:07;100809.48;;;2.20;66.08
57885;BME280;43703;51.060;-0.086;2022-12-07T00:49:33;100808.26;;;2.12;66.13
57885;BME280;43703;51.060;-0.086;2022-12-07T00:51:58;100805.16;;;2.05;66.35
57885;BME280;43703;51.060;-0.086;2022-12-07T00:54:24;100805.84;;;1.77;65.98
57885;BME280;43703;51.060;-0.086;2022-12-07T00:56:49;100804.02;;;2.00;65.82
57885;BME280;43703;51.060;-0.086;2022-12-07T00:59:14;100806.70;;;2.06;65.90
57885;BME280;43703;51.060;-0.086;2022-12-07T01:01:40;100805.10;;;2.10;65.88
57885;BME280;43703;51.060;-0.086;2022-12-07T01:04:05;100801.52;;;1.82;66.70
57885;BME280;43703;51.060;-0.086;2022-12-07T01:06:30;100801.19;;;1.59;66.36
57885;BME280;43703;51.060;-0.086;2022-12-07T01:08:56;100800.06;;;1.60;66.34
57885;BME280;43703;51.060;-0.086;2022-12-07T01:11:23;100800.32;;;1.53;66.98
57885;BME280;43703;51.060;-0.086;2022-12-07T01:13:48;100798.87;;;1.62;66.36
57885;BME280;43703;51.060;-0.086;2022-12-07T01:16:13;100798.05;;;1.82;65.63
57885;BME280;43703;51.060;-0.086;2022-12-07T01:18:37;100796.19;;;1.52;66.65
57885;BME280;43703;51.060;-0.086;2022-12-07T01:21:04;100794.50;;;1.79;66.13
57885;BME280;43703;51.060;-0.086;2022-12-07T01:23:29;100793.68;;;1.55;66.42
57885;BME280;43703;51.060;-0.086;2022-12-07T01:25:55;100790.12;;;1.93;65.93
57885;BME280;43703;51.060;-0.086;2022-12-07T01:28:19;100790.81;;;1.52;66.23
57885;BME280;43703;51.060;-0.086;2022-12-07T01:30:44;100787.62;;;2.02;65.37
57885;BME280;43703;51.060;-0.086;2022-12-07T01:33:09;100782.78;;;1.82;65.75
57885;BME280;43703;51.060;-0.086;2022-12-07T01:35:34;100779.44;;;1.37;66.27
57885;BME280;43703;51.060;-0.086;2022-12-07T01:38:00;100781.46;;;1.80;66.56
57885;BME280;43703;51.060;-0.086;2022-12-07T01:40:25;100782.13;;;1.69;66.11
57885;BME280;43703;51.060;-0.086;2022-12-07T01:42:51;100782.52;;;1.61;66.48
57885;BME280;43703;51.060;-0.086;2022-12-07T01:47:41;100781.58;;;1.32;67.25
57885;BME280;43703;51.060;-0.086;2022-12-07T01:50:07;100783.01;;;1.37;67.09
57885;BME280;43703;51.060;-0.086;2022-12-07T01:52:33;100780.19;;;1.58;66.55
57885;BME280;43703;51.060;-0.086;2022-12-07T01:54:59;100780.30;;;1.70;66.62
57885;BME280;43703;51.060;-0.086;2022-12-07T01:57:23;100781.09;;;1.44;67.29
57885;BME280;43703;51.060;-0.086;2022-12-07T01:59:50;100783.14;;;1.47;66.63
57885;BME280;43703;51.060;-0.086;2022-12-07T02:02:18;100783.82;;;1.54;66.23
57885;BME280;43703;51.060;-0.086;2022-12-07T02:04:39;100784.54;;;1.37;66.78
57885;BME280;43703;51.060;-0.086;2022-12-07T02:07:05;100782.04;;;1.53;66.17
57885;BME280;43703;51.060;-0.086;2022-12-07T02:09:31;100785.50;;;1.38;66.27
57885;BME280;43703;51.060;-0.086;2022-12-07T02:11:56;100789.05;;;1.55;66.76
57885;BME280;43703;51.060;-0.086;2022-12-07T02:14:21;100787.13;;;1.70;66.44
57885;BME280;43703;51.060;-0.086;2022-12-07T02:16:57;100787.07;;;1.21;67.20
57885;BME280;43703;51.060;-0.086;2022-12-07T02:21:44;100790.28;;;1.19;67.11
57885;BME280;43703;51.060;-0.086;2022-12-07T02:24:14;100791.64;;;1.33;67.25
57885;BME280;43703;51.060;-0.086;2022-12-07T02:31:21;100791.23;;;1.80;67.52
57885;BME280;43703;51.060;-0.086;2022-12-07T02:33:46;100789.34;;;1.59;67.23
57885;BME280;43703;51.060;-0.086;2022-12-07T02:36:12;100791.22;;;1.93;66.82
57885;BME280;43703;51.060;-0.086;2022-12-07T02:38:38;100794.83;;;1.56;66.31
57885;BME280;43703;51.060;-0.086;2022-12-07T02:41:04;100792.96;;;1.91;66.04
57885;BME280;43703;51.060;-0.086;2022-12-07T02:43:28;100792.38;;;1.66;66.09
57885;BME280;43703;51.060;-0.086;2022-12-07T02:45:53;100793.00;;;1.84;66.25
57885;BME280;43703;51.060;-0.086;2022-12-07T02:48:17;100789.60;;;1.91;66.34
57885;BME280;43703;51.060;-0.086;2022-12-07T02:50:45;100794.77;;;1.92;66.65
57885;BME280;43703;51.060;-0.086;2022-12-07T02:55:37;100795.60;;;1.69;66.02
57885;BME280;43703;51.060;-0.086;2022-12-07T02:58:09;100790.02;;;1.93;66.09
57885;BME280;43703;51.060;-0.086;2022-12-07T03:00:24;100787.91;;;1.97;66.30
57885;BME280;43703;51.060;-0.086;2022-12-07T03:02:54;100787.80;;;1.70;65.86
57885;BME280;43703;51.060;-0.086;2022-12-07T03:07:45;100789.77;;;1.63;66.07
57885;BME280;43703;51.060;-0.086;2022-12-07T03:10:10;100787.33;;;1.80;65.93
57885;BME280;43703;51.060;-0.086;2022-12-07T03:12:35;100783.75;;;1.83;65.70
57885;BME280;43703;51.060;-0.086;2022-12-07T03:15:01;100781.07;;;1.41;66.05
57885;BME280;43703;51.060;-0.086;2022-12-07T03:17:26;100775.05;;;1.51;66.30
57885;BME280;43703;51.060;-0.086;2022-12-07T03:19:49;100773.24;;;1.26;66.05
57885;BME280;43703;51.060;-0.086;2022-12-07T03:22:13;100768.22;;;1.54;65.84
57885;BME280;43703;51.060;-0.086;2022-12-07T03:24:42;100769.65;;;1.63;65.45
57885;BME280;43703;51.060;-0.086;2022-12-07T03:27:07;100765.48;;;1.58;65.41
57885;BME280;43703;51.060;-0.086;2022-12-07T03:29:31;100767.01;;;1.46;65.67
57885;BME280;43703;51.060;-0.086;2022-12-07T03:31:58;100765.06;;;1.48;65.26
57885;BME280;43703;51.060;-0.086;2022-12-07T03:34:23;100764.97;;;1.26;65.81
57885;BME280;43703;51.060;-0.086;2022-12-07T03:36:47;100764.39;;;1.28;65.91
57885;BME280;43703;51.060;-0.086;2022-12-07T03:39:18;100756.97;;;1.48;65.76
57885;BME280;43703;51.060;-0.086;2022-12-07T03:41:36;100758.84;;;1.23;66.22
57885;BME280;43703;51.060;-0.086;2022-12-07T03:44:00;100763.24;;;1.19;66.36
57885;BME280;43703;51.060;-0.086;2022-12-07T03:46:32;100760.89;;;1.30;65.84
57885;BME280;43703;51.060;-0.086;2022-12-07T03:48:56;100762.84;;;0.94;65.94
57885;BME280;43703;51.060;-0.086;2022-12-07T03:51:21;100758.41;;;1.44;65.81
57885;BME280;43703;51.060;-0.086;2022-12-07T03:53:46;100755.37;;;1.35;65.48
57885;BME280;43703;51.060;-0.086;2022-12-07T03:56:08;100756.76;;;1.26;65.95
57885;BME280;43703;51.060;-0.086;2022-12-07T03:58:33;100754.88;;;1.40;66.36
57885;BME280;43703;51.060;-0.086;2022-12-07T04:00:58;100756.42;;;0.97;66.58
57885;BME280;43703;51.060;-0.086;2022-12-07T04:03:24;100754.36;;;1.46;66.78
57885;BME280;43703;51.060;-0.086;2022-12-07T04:05:49;100755.31;;;1.29;67.08
57885;BME280;43703;51.060;-0.086;2022-12-07T04:08:15;100758.35;;;1.18;66.38
57885;BME280;43703;51.060;-0.086;2022-12-07T04:10:40;100756.67;;;1.16;66.27
57885;BME280;43703;51.060;-0.086;2022-12-07T04:13:05;100753.77;;;1.70;65.59
57885;BME280;43703;51.060;-0.086;2022-12-07T04:15:30;100757.01;;;1.29;66.17
57885;BME280;43703;51.060;-0.086;2022-12-07T04:17:56;100761.44;;;1.85;65.66
57885;BME280;43703;51.060;-0.086;2022-12-07T04:20:22;100757.92;;;1.52;66.85
57885;BME280;43703;51.060;-0.086;2022-12-07T04:22:48;100757.23;;;1.13;67.05
57885;BME280;43703;51.060;-0.086;2022-12-07T04:25:13;100759.55;;;1.68;66.62
57885;BME280;43703;51.060;-0.086;2022-12-07T04:27:38;100755.91;;;2.14;65.98
57885;BME280;43703;51.060;-0.086;2022-12-07T04:30:05;100755.42;;;1.60;66.42
57885;BME280;43703;51.060;-0.086;2022-12-07T04:32:29;100755.35;;;1.57;66.98
57885;BME280;43703;51.060;-0.086;2022-12-07T04:34:54;100752.92;;;1.65;66.94
57885;BME280;43703;51.060;-0.086;2022-12-07T04:37:20;100758.49;;;1.46;67.38
57885;BME280;43703;51.060;-0.086;2022-12-07T04:39:45;100755.67;;;2.08;67.23
57885;BME280;43703;51.060;-0.086;2022-12-07T04:42:11;100758.28;;;1.68;67.16
57885;BME280;43703;51.060;-0.086;2022-12-07T04:44:37;100754.99;;;1.82;66.70
57885;BME280;43703;51.060;-0.086;2022-12-07T04:47:02;100752.78;;;1.90;67.57
57885;BME280;43703;51.060;-0.086;2022-12-07T04:49:27;100756.23;;;1.91;66.56
57885;BME280;43703;51.060;-0.086;2022-12-07T04:51:53;100750.85;;;1.94;67.07
57885;BME280;43703;51.060;-0.086;2022-12-07T04:54:18;100755.10;;;2.14;66.72
57885;BME280;43703;51.060;-0.086;2022-12-07T04:56:43;100753.62;;;2.29;66.04
57885;BME280;43703;51.060;-0.086;2022-12-07T04:59:10;100748.93;;;1.93;65.68
57885;BME280;43703;51.060;-0.086;2022-12-07T05:01:33;100748.21;;;2.16;65.75
57885;BME280;43703;51.060;-0.086;2022-12-07T05:03:58;100744.94;;;1.91;65.37
57885;BME280;43703;51.060;-0.086;2022-12-07T05:06:23;100745.32;;;1.72;65.37
57885;BME280;43703;51.060;-0.086;2022-12-07T05:08:48;100740.58;;;1.91;64.97
57885;BME280;43703;51.060;-0.086;2022-12-07T05:11:15;100742.44;;;2.18;64.79
57885;BME280;43703;51.060;-0.086;2022-12-07T05:13:40;100742.89;;;1.92;65.22
57885;BME280;43703;51.060;-0.086;2022-12-07T05:16:05;100748.16;;;1.71;65.06
57885;BME280;43703;51.060;-0.086;2022-12-07T05:18:30;100744.65;;;1.45;65.55
57885;BME280;43703;51.060;-0.086;2022-12-07T05:20:56;100739.19;;;1.51;65.36
57885;BME280;43703;51.060;-0.086;2022-12-07T05:23:21;100739.97;;;1.99;65.34
57885;BME280;43703;51.060;-0.086;2022-12-07T05:25:47;100743.52;;;1.71;65.91
57885;BME280;43703;51.060;-0.086;2022-12-07T05:28:13;100746.00;;;2.27;65.34
57885;BME280;43703;51.060;-0.086;2022-12-07T05:30:38;100745.53;;;2.29;65.17
57885;BME280;43703;51.060;-0.086;2022-12-07T05:33:03;100747.29;;;1.96;65.81
57885;BME280;43703;51.060;-0.086;2022-12-07T05:35:28;100747.43;;;1.64;66.81
57885;BME280;43703;51.060;-0.086;2022-12-07T05:37:53;100748.13;;;2.09;66.24
57885;BME280;43703;51.060;-0.086;2022-12-07T05:40:19;100748.07;;;2.02;66.67
57885;BME280;43703;51.060;-0.086;2022-12-07T05:42:44;100744.81;;;1.95;66.82
57885;BME280;43703;51.060;-0.086;2022-12-07T05:45:10;100742.61;;;2.09;66.77
57885;BME280;43703;51.060;-0.086;2022-12-07T05:47:35;100738.10;;;2.40;66.77
57885;BME280;43703;51.060;-0.086;2022-12-07T05:50:02;100731.81;;;2.30;66.94
57885;BME280;43703;51.060;-0.086;2022-12-07T05:52:26;100734.91;;;2.08;66.93
57885;BME280;43703;51.060;-0.086;2022-12-07T05:54:52;100730.43;;;2.39;67.10
57885;BME280;43703;51.060;-0.086;2022-12-07T05:57:17;100730.41;;;2.21;66.61
57885;BME280;43703;51.060;-0.086;2022-12-07T05:59:43;100724.44;;;2.11;66.30
57885;BME280;43703;51.060;-0.086;2022-12-07T06:02:10;100729.75;;;2.10;66.62
57885;BME280;43703;51.060;-0.086;2022-12-07T06:04:36;100725.71;;;2.28;66.32
57885;BME280;43703;51.060;-0.086;2022-12-07T06:06:59;100725.00;;;2.07;66.61
57885;BME280;43703;51.060;-0.086;2022-12-07T06:09:26;100718.06;;;2.64;66.14
57885;BME280;43703;51.060;-0.086;2022-12-07T06:11:49;100719.46;;;2.10;66.54
57885;BME280;43703;51.060;-0.086;2022-12-07T06:14:15;100718.52;;;2.29;65.59
57885;BME280;43703;51.060;-0.086;2022-12-07T06:16:41;100717.47;;;2.36;65.25
57885;BME280;43703;51.060;-0.086;2022-12-07T06:19:07;100717.28;;;2.14;65.24
57885;BME280;43703;51.060;-0.086;2022-12-07T06:21:32;100718.55;;;2.91;64.98
57885;BME280;43703;51.060;-0.086;2022-12-07T06:23:57;100717.29;;;2.19;66.04
57885;BME280;43703;51.060;-0.086;2022-12-07T06:26:23;100722.35;;;1.79;66.11
57885;BME280;43703;51.060;-0.086;2022-12-07T06:28:47;100723.60;;;2.59;65.40
57885;BME280;43703;51.060;-0.086;2022-12-07T06:31:13;100725.45;;;2.03;65.63
57885;BME280;43703;51.060;-0.086;2022-12-07T06:33:39;100725.52;;;2.57;65.60
57885;BME280;43703;51.060;-0.086;2022-12-07T06:36:04;100728.77;;;2.38;65.42
57885;BME280;43703;51.060;-0.086;2022-12-07T06:38:29;100725.93;;;2.75;65.89
57885;BME280;43703;51.060;-0.086;2022-12-07T06:40:55;100735.98;;;2.43;65.50
57885;BME280;43703;51.060;-0.086;2022-12-07T06:43:20;100735.72;;;2.35;66.16
57885;BME280;43703;51.060;-0.086;2022-12-07T06:45:45;100736.45;;;2.17;66.19
57885;BME280;43703;51.060;-0.086;2022-12-07T06:48:11;100738.78;;;2.76;65.95
57885;BME280;43703;51.060;-0.086;2022-12-07T06:50:37;100734.58;;;2.33;66.74
57885;BME280;43703;51.060;-0.086;2022-12-07T06:53:02;100735.15;;;2.52;66.95
57885;BME280;43703;51.060;-0.086;2022-12-07T06:55:28;100737.96;;;2.33;67.07
57885;BME280;43703;51.060;-0.086;2022-12-07T06:57:53;100738.57;;;2.29;66.75
57885;BME280;43703;51.060;-0.086;2022-12-07T07:00:19;100741.74;;;3.02;67.04
57885;BME280;43703;51.060;-0.086;2022-12-07T07:02:44;100744.32;;;2.46;66.80
57885;BME280;43703;51.060;-0.086;2022-12-07T07:05:09;100744.82;;;2.84;66.39
57885;BME280;43703;51.060;-0.086;2022-12-07T07:07:34;100747.23;;;2.88;66.79
57885;BME280;43703;51.060;-0.086;2022-12-07T07:10:00;100748.48;;;2.50;66.37
57885;BME280;43703;51.060;-0.086;2022-12-07T07:12:25;100746.54;;;2.41;66.53
57885;BME280;43703;51.060;-0.086;2022-12-07T07:14:51;100746.94;;;2.89;66.34
57885;BME280;43703;51.060;-0.086;2022-12-07T07:17:16;100749.15;;;2.58;66.99
57885;BME280;43703;51.060;-0.086;2022-12-07T07:19:42;100745.87;;;2.18;66.24
57885;BME280;43703;51.060;-0.086;2022-12-07T07:22:07;100748.16;;;2.92;65.83
57885;BME280;43703;51.060;-0.086;2022-12-07T07:24:33;100747.45;;;2.56;65.16
57885;BME280;43703;51.060;-0.086;2022-12-07T07:26:59;100754.09;;;2.49;65.50
57885;BME280;43703;51.060;-0.086;2022-12-07T07:29:23;100748.92;;;2.51;65.12
57885;BME280;43703;51.060;-0.086;2022-12-07T07:31:48;100745.98;;;3.62;64.89
57885;BME280;43703;51.060;-0.086;2022-12-07T07:34:14;100749.29;;;3.00;65.51
57885;BME280;43703;51.060;-0.086;2022-12-07T07:36:40;100752.06;;;2.74;65.58
57885;BME280;43703;51.060;-0.086;2022-12-07T07:39:06;100753.35;;;3.18;66.04
57885;BME280;43703;51.060;-0.086;2022-12-07T07:41:31;100760.58;;;2.73;65.52
57885;BME280;43703;51.060;-0.086;2022-12-07T07:43:56;100757.63;;;2.71;66.33
57885;BME280;43703;51.060;-0.086;2022-12-07T07:46:21;100761.05;;;2.49;66.15
57885;BME280;43703;51.060;-0.086;2022-12-07T07:48:47;100757.00;;;3.17;66.05
57885;BME280;43703;51.060;-0.086;2022-12-07T07:51:12;100757.33;;;2.86;65.61
57885;BME280;43703;51.060;-0.086;2022-12-07T07:53:37;100759.53;;;3.05;65.17
57885;BME280;43703;51.060;-0.086;2022-12-07T07:56:03;100758.49;;;2.86;65.27
57885;BME280;43703;51.060;-0.086;2022-12-07T07:58:28;100762.98;;;2.56;65.41
57885;BME280;43703;51.060;-0.086;2022-12-07T08:00:54;100762.32;;;2.33;65.89
57885;BME280;43703;51.060;-0.086;2022-12-07T08:03:19;100765.80;;;2.35;66.29
57885;BME280;43703;51.060;-0.086;2022-12-07T08:05:44;100767.95;;;3.19;65.92
57885;BME280;43703;51.060;-0.086;2022-12-07T08:08:09;100765.47;;;3.12;65.89
57885;BME280;43703;51.060;-0.086;2022-12-07T08:10:35;100763.92;;;2.97;65.84
57885;BME280;43703;51.060;-0.086;2022-12-07T08:13:00;100765.86;;;2.57;66.00
57885;BME280;43703;51.060;-0.086;2022-12-07T08:15:26;100765.26;;;3.21;65.56
57885;BME280;43703;51.060;-0.086;2022-12-07T08:17:50;100767.12;;;3.38;65.65
57885;BME280;43703;51.060;-0.086;2022-12-07T08:20:16;100772.30;;;2.71;65.10
57885;BME280;43703;51.060;-0.086;2022-12-07T08:22:41;100772.59;;;2.71;65.83
57885;BME280;43703;51.060;-0.086;2022-12-07T08:25:07;100773.11;;;3.20;65.65
57885;BME280;43703;51.060;-0.086;2022-12-07T08:27:32;100773.76;;;3.33;65.93
57885;BME280;43703;51.060;-0.086;2022-12-07T08:29:57;100776.83;;;3.40;65.36
57885;BME280;43703;51.060;-0.086;2022-12-07T08:32:23;100778.37;;;3.26;65.61
57885;BME280;43703;51.060;-0.086;2022-12-07T08:34:48;100778.02;;;3.55;65.65
57885;BME280;43703;51.060;-0.086;2022-12-07T08:37:14;100772.67;;;3.11;64.96
57885;BME280;43703;51.060;-0.086;2022-12-07T08:39:40;100778.03;;;3.42;65.50
57885;BME280;43703;51.060;-0.086;2022-12-07T08:42:05;100779.41;;;3.48;64.69
57885;BME280;43703;51.060;-0.086;2022-12-07T08:44:30;100776.94;;;3.83;65.07
57885;BME280;43703;51.060;-0.086;2022-12-07T08:46:58;100774.80;;;3.73;64.21
57885;BME280;43703;51.060;-0.086;2022-12-07T08:49:24;100772.49;;;3.21;64.88
57885;BME280;43703;51.060;-0.086;2022-12-07T08:51:46;100773.86;;;3.73;64.41
57885;BME280;43703;51.060;-0.086;2022-12-07T08:54:15;100771.86;;;3.68;65.05
57885;BME280;43703;51.060;-0.086;2022-12-07T08:56:37;100773.93;;;3.78;64.39
57885;BME280;43703;51.060;-0.086;2022-12-07T08:59:03;100769.24;;;3.78;64.29
57885;BME280;43703;51.060;-0.086;2022-12-07T09:01:27;100768.03;;;3.37;64.29
57885;BME280;43703;51.060;-0.086;2022-12-07T09:03:52;100765.01;;;3.54;64.58
57885;BME280;43703;51.060;-0.086;2022-12-07T09:06:18;100764.28;;;3.71;64.45
57885;BME280;43703;51.060;-0.086;2022-12-07T09:08:46;100757.69;;;3.61;63.97
57885;BME280;43703;51.060;-0.086;2022-12-07T09:11:08;100760.75;;;3.25;63.17
57885;BME280;43703;51.060;-0.086;2022-12-07T09:13:34;100757.19;;;3.29;63.88
57885;BME280;43703;51.060;-0.086;2022-12-07T09:15:59;100754.95;;;3.83;64.46
57885;BME280;43703;51.060;-0.086;2022-12-07T09:18:24;100758.34;;;3.56;63.77
57885;BME280;43703;51.060;-0.086;2022-12-07T09:20:49;100756.24;;;3.47;63.68
57885;BME280;43703;51.060;-0.086;2022-12-07T09:23:14;100758.40;;;3.61;64.27
57885;BME280;43703;51.060;-0.086;2022-12-07T09:25:39;100761.21;;;3.95;63.20
57885;BME280;43703;51.060;-0.086;2022-12-07T09:28:04;100762.15;;;4.08;63.82
57885;BME280;43703;51.060;-0.086;2022-12-07T09:30:30;100760.30;;;3.99;64.41
57885;BME280;43703;51.060;-0.086;2022-12-07T09:32:56;100758.74;;;4.23;63.40
57885;BME280;43703;51.060;-0.086;2022-12-07T09:35:21;100760.01;;;3.50;63.45
57885;BME280;43703;51.060;-0.086;2022-12-07T09:37:45;100756.30;;;3.36;63.64
57885;BME280;43703;51.060;-0.086;2022-12-07T09:40:12;100752.09;;;3.75;63.43
57885;BME280;43703;51.060;-0.086;2022-12-07T09:42:38;100754.81;;;4.23;64.09
57885;BME280;43703;51.060;-0.086;2022-12-07T09:45:02;100754.62;;;4.27;64.44
57885;BME280;43703;51.060;-0.086;2022-12-07T09:47:28;100755.91;;;3.99;63.37
57885;BME280;43703;51.060;-0.086;2022-12-07T09:49:54;100753.64;;;4.68;64.96
57885;BME280;43703;51.060;-0.086;2022-12-07T09:52:20;100758.82;;;4.74;63.42
57885;BME280;43703;51.060;-0.086;2022-12-07T09:54:46;100760.21;;;4.16;62.64
57885;BME280;43703;51.060;-0.086;2022-12-07T09:57:11;100764.70;;;4.37;63.78
57885;BME280;43703;51.060;-0.086;2022-12-07T09:59:34;100763.54;;;4.34;63.47
57885;BME280;43703;51.060;-0.086;2022-12-07T10:04:26;100762.16;;;4.10;62.62
57885;BME280;43703;51.060;-0.086;2022-12-07T10:06:51;100765.07;;;4.10;63.09
57885;BME280;43703;51.060;-0.086;2022-12-07T10:09:18;100762.02;;;4.22;62.84
57885;BME280;43703;51.060;-0.086;2022-12-07T10:14:12;100754.86;;;4.38;64.20
57885;BME280;43703;51.060;-0.086;2022-12-07T10:16:38;100753.04;;;4.52;62.99
57885;BME280;43703;51.060;-0.086;2022-12-07T10:21:25;100735.42;;;4.38;62.10
57885;BME280;43703;51.060;-0.086;2022-12-07T10:23:59;100739.33;;;4.76;63.58
57885;BME280;43703;51.060;-0.086;2022-12-07T10:26:20;100738.14;;;4.60;62.36
57885;BME280;43703;51.060;-0.086;2022-12-07T10:28:40;100731.64;;;4.54;62.45
57885;BME280;43703;51.060;-0.086;2022-12-07T10:31:15;100726.19;;;5.02;62.01
57885;BME280;43703;51.060;-0.086;2022-12-07T10:33:34;100721.24;;;4.39;61.32
57885;BME280;43703;51.060;-0.086;2022-12-07T10:35:56;100721.68;;;5.09;62.00
57885;BME280;43703;51.060;-0.086;2022-12-07T10:38:21;100718.58;;;4.87;60.71
57885;BME280;43703;51.060;-0.086;2022-12-07T10:40:47;100717.53;;;5.24;61.14
57885;BME280;43703;51.060;-0.086;2022-12-07T10:43:18;100716.62;;;4.82;61.15
57885;BME280;43703;51.060;-0.086;2022-12-07T10:45:54;100712.13;;;5.70;62.43
57885;BME280;43703;51.060;-0.086;2022-12-07T10:48:09;100703.93;;;4.83;60.55
57885;BME280;43703;51.060;-0.086;2022-12-07T10:53:07;100703.68;;;4.96;60.39
57885;BME280;43703;51.060;-0.086;2022-12-07T10:55:23;100699.74;;;5.29;60.29
57885;BME280;43703;51.060;-0.086;2022-12-07T10:57:56;100696.50;;;5.85;60.12
57885;BME280;43703;51.060;-0.086;2022-12-07T11:00:16;100698.87;;;6.02;61.86
57885;BME280;43703;51.060;-0.086;2022-12-07T11:02:49;100693.87;;;5.41;58.70
57885;BME280;43703;51.060;-0.086;2022-12-07T11:05:12;100687.71;;;5.28;57.78
57885;BME280;43703;51.060;-0.086;2022-12-07T11:07:37;100688.52;;;6.27;60.83
57885;BME280;43703;51.060;-0.086;2022-12-07T11:09:58;100687.77;;;6.10;58.79
57885;BME280;43703;51.060;-0.086;2022-12-07T11:12:25;100690.44;;;5.93;58.06
57885;BME280;43703;51.060;-0.086;2022-12-07T11:14:49;100687.15;;;6.28;58.60
57885;BME280;43703;51.060;-0.086;2022-12-07T11:17:13;100680.60;;;6.43;60.62
57885;BME280;43703;51.060;-0.086;2022-12-07T11:19:44;100675.64;;;6.73;61.27
57885;BME280;43703;51.060;-0.086;2022-12-07T11:22:03;100676.33;;;6.42;61.17
57885;BME280;43703;51.060;-0.086;2022-12-07T11:24:30;100676.43;;;5.86;57.59
57885;BME280;43703;51.060;-0.086;2022-12-07T11:27:04;100676.95;;;5.83;59.60
57885;BME280;43703;51.060;-0.086;2022-12-07T11:29:28;100671.54;;;5.53;57.68
57885;BME280;43703;51.060;-0.086;2022-12-07T11:31:50;100664.90;;;6.18;62.07
57885;BME280;43703;51.060;-0.086;2022-12-07T11:34:10;100663.93;;;5.64;58.40
57885;BME280;43703;51.060;-0.086;2022-12-07T11:36:37;100659.47;;;6.16;61.01
57885;BME280;43703;51.060;-0.086;2022-12-07T11:39:00;100653.94;;;5.85;61.47
57885;BME280;43703;51.060;-0.086;2022-12-07T11:41:25;100651.93;;;5.91;58.86
57885;BME280;43703;51.060;-0.086;2022-12-07T11:43:55;100646.28;;;5.47;57.26
57885;BME280;43703;51.060;-0.086;2022-12-07T11:46:15;100648.58;;;5.67;58.47
57885;BME280;43703;51.060;-0.086;2022-12-07T11:48:41;100646.16;;;6.18;58.75
57885;BME280;43703;51.060;-0.086;2022-12-07T11:51:07;100641.60;;;5.85;60.64
57885;BME280;43703;51.060;-0.086;2022-12-07T11:53:35;100637.87;;;6.10;60.07
57885;BME280;43703;51.060;-0.086;2022-12-07T11:55:57;100639.78;;;6.45;61.35
57885;BME280;43703;51.060;-0.086;2022-12-07T12:00:45;100641.45;;;6.95;60.58
57885;BME280;43703;51.060;-0.086;2022-12-07T12:03:14;100637.33;;;7.18;60.67
57885;BME280;43703;51.060;-0.086;2022-12-07T12:05:39;100639.08;;;7.39;60.68
57885;BME280;43703;51.060;-0.086;2022-12-07T12:08:11;100634.31;;;7.24;59.59
57885;BME280;43703;51.060;-0.086;2022-12-07T12:10:34;100628.28;;;7.27;61.58
57885;BME280;43703;51.060;-0.086;2022-12-07T12:13:04;100625.38;;;6.25;57.44
57885;BME280;43703;51.060;-0.086;2022-12-07T12:15:28;100620.49;;;6.72;58.17
57885;BME280;43703;51.060;-0.086;2022-12-07T12:17:56;100619.99;;;6.60;60.12
57885;BME280;43703;51.060;-0.086;2022-12-07T12:20:16;100618.92;;;5.68;56.43
57885;BME280;43703;51.060;-0.086;2022-12-07T12:22:38;100615.10;;;6.27;57.34
57885;BME280;43703;51.060;-0.086;2022-12-07T12:25:00;100608.57;;;6.57;57.27
57885;BME280;43703;51.060;-0.086;2022-12-07T12:27:29;100605.64;;;6.79;57.64
57885;BME280;43703;51.060;-0.086;2022-12-07T12:29:54;100602.06;;;7.57;56.83
57885;BME280;43703;51.060;-0.086;2022-12-07T12:32:18;100600.80;;;8.73;61.71
57885;BME280;43703;51.060;-0.086;2022-12-07T12:39:32;100601.46;;;6.53;51.67
57885;BME280;43703;51.060;-0.086;2022-12-07T12:41:59;100593.09;;;6.62;55.44
57885;BME280;43703;51.060;-0.086;2022-12-07T12:46:52;100590.06;;;6.78;55.80
57885;BME280;43703;51.060;-0.086;2022-12-07T12:51:40;100592.24;;;6.62;56.55
57885;BME280;43703;51.060;-0.086;2022-12-07T12:54:04;100589.70;;;6.04;55.08
57885;BME280;43703;51.060;-0.086;2022-12-07T12:56:37;100589.00;;;5.92;55.61
57885;BME280;43703;51.060;-0.086;2022-12-07T13:03:52;100577.18;;;5.84;58.30
57885;BME280;43703;51.060;-0.086;2022-12-07T13:06:18;100573.90;;;5.62;57.27
57885;BME280;43703;51.060;-0.086;2022-12-07T13:08:40;100572.52;;;6.00;59.15
57885;BME280;43703;51.060;-0.086;2022-12-07T13:13:32;100564.89;;;5.09;58.16
57885;BME280;43703;51.060;-0.086;2022-12-07T13:15:53;100559.99;;;5.23;57.96
57885;BME280;43703;51.060;-0.086;2022-12-07T13:18:23;100559.67;;;5.47;57.94
57885;BME280;43703;51.060;-0.086;2022-12-07T13:20:49;100554.70;;;5.85;59.31
57885;BME280;43703;51.060;-0.086;2022-12-07T13:23:09;100551.46;;;5.61;57.44